Freedom, Maine
Current Conditions -  °F | °C
As of 3:35 PM on Wednesday 26 Nov 2014 (Local Time) from KWVL Reporting Station
Overcast Overcast  
Wind Chill: 29°   Ceiling: 400
Heat Index: 34°   Visibility: 0.5mi
Dew Point: 28°   Wind: 6mph
Humidity: 81%   Direction: 30°NNE
Pressure: 30.14"   Gusts: NA
Location:  44.53°N, 69.3°W
Report Text: KWVL 262035Z 03005KT 1/2SM OVC004 01/M02 A3014 RMK AO1 P0001
Loading
Personal Weather Stations






























Interactive Weather Map New forecast layout! Learn more

10-Day Weather Forecast

Advertisements
Track Severe Weather on mobile